Time;durP1;ratioP1;P1;durP2;ratioP2;P2;SDS_P1;SDS_P2;PMS_P1;PMS_P2;Temp;Humidity;BMP_temperature;BMP_pressure;BME280_temperature;BME280_humidity;BME280_pressure;Samples;Min_cycle;Max_cycle;Signal;HPM_P1;HPM_P2
2023/07/31 00:00:40;;;;;;;3.57;1.70;;;;;;;;;;4993289;28;20357;-75
2023/07/31 00:03:06;;;;;;;4.10;1.67;;;;;;;;;;5026970;28;20710;-75
2023/07/31 00:05:32;;;;;;;2.27;1.60;;;;;;;;;;4998139;28;20619;-75
2023/07/31 00:07:58;;;;;;;3.20;1.60;;;;;;;;;;4981946;28;20736;-75
2023/07/31 00:10:24;;;;;;;4.40;2.00;;;;;;;;;;4976117;28;20542;-74
2023/07/31 00:12:51;;;;;;;3.90;1.83;;;;;;;;;;4998303;28;20218;-75
2023/07/31 00:15:17;;;;;;;3.73;1.87;;;;;;;;;;5014163;28;20195;-75
2023/07/31 00:17:43;;;;;;;4.53;1.80;;;;;;;;;;5014390;28;20178;-75
2023/07/31 00:20:09;;;;;;;4.17;1.70;;;;;;;;;;4996578;28;20269;-75
2023/07/31 00:22:36;;;;;;;3.33;1.80;;;;;;;;;;5012683;28;20671;-75
2023/07/31 00:25:02;;;;;;;3.80;1.80;;;;;;;;;;5019747;28;20502;-74
2023/07/31 00:27:28;;;;;;;3.53;1.63;;;;;;;;;;5026683;28;20195;-75
2023/07/31 00:29:55;;;;;;;4.87;1.90;;;;;;;;;;5012804;28;20269;-75
2023/07/31 00:32:21;;;;;;;2.87;1.80;;;;;;;;;;4997660;28;20203;-75
2023/07/31 00:34:47;;;;;;;2.93;1.70;;;;;;;;;;5012664;28;20912;-75
2023/07/31 00:37:13;;;;;;;3.90;1.83;;;;;;;;;;5011031;28;20183;-75
2023/07/31 00:39:41;;;;;;;3.00;1.60;;;;;;;;;;5030234;28;20178;-74
2023/07/31 00:42:07;;;;;;;4.70;2.10;;;;;;;;;;4996434;28;20620;-75
2023/07/31 00:44:33;;;;;;;5.03;2.20;;;;;;;;;;5030926;28;20189;-75
2023/07/31 00:47:00;;;;;;;4.47;2.03;;;;;;;;;;4997663;28;20506;-75
2023/07/31 00:49:26;;;;;;;4.30;1.87;;;;;;;;;;4996443;28;20236;-75
2023/07/31 00:51:53;;;;;;;5.27;2.40;;;;;;;;;;5030246;28;20225;-75
2023/07/31 00:54:19;;;;;;;3.60;1.83;;;;;;;;;;5012339;28;20253;-75
2023/07/31 00:56:48;;;;;;;4.03;1.90;;;;;;;;;;5014655;28;20190;-75
2023/07/31 00:59:14;;;;;;;5.73;2.03;;;;;;;;;;5012442;28;20183;-74
2023/07/31 01:01:41;;;;;;;4.50;1.90;;;;;;;;;;4998043;28;20202;-74
2023/07/31 01:04:07;;;;;;;2.73;1.87;;;;;;;;;;5014088;28;20186;-75
2023/07/31 01:06:36;;;;;;;3.10;1.70;;;;;;;;;;5012773;28;20194;-75
2023/07/31 01:09:19;;;;;;;4.23;2.00;;;;;;;;;;5012407;28;20198;-75
2023/07/31 01:11:56;;;;;;;4.63;1.70;;;;;;;;;;5030738;28;20686;-74
2023/07/31 01:14:23;;;;;;;3.60;1.90;;;;;;;;;;5029560;28;20568;-75
2023/07/31 01:16:49;;;;;;;4.47;2.00;;;;;;;;;;4995834;28;20277;-75
2023/07/31 01:19:17;;;;;;;3.33;1.97;;;;;;;;;;5012110;28;20187;-75
2023/07/31 01:21:57;;;;;;;3.93;1.93;;;;;;;;;;4996511;28;20716;-74
2023/07/31 01:24:29;;;;;;;3.17;1.80;;;;;;;;;;5011498;28;20236;-73
2023/07/31 01:27:03;;;;;;;4.67;1.87;;;;;;;;;;5029315;28;20182;-74
2023/07/31 01:29:39;;;;;;;4.00;1.90;;;;;;;;;;4972329;28;20189;-73
2023/07/31 01:32:06;;;;;;;3.33;1.80;;;;;;;;;;5010981;28;20210;-74
2023/07/31 01:34:32;;;;;;;4.63;1.80;;;;;;;;;;5010823;28;20210;-73
2023/07/31 01:36:59;;;;;;;3.87;1.70;;;;;;;;;;5010793;28;20183;-74
2023/07/31 01:39:25;;;;;;;4.37;2.00;;;;;;;;;;5010912;28;20279;-74
2023/07/31 01:41:52;;;;;;;3.67;1.80;;;;;;;;;;5028644;28;20217;-73
2023/07/31 01:44:18;;;;;;;3.83;2.10;;;;;;;;;;5010665;28;20573;-73
2023/07/31 01:46:44;;;;;;;5.03;2.10;;;;;;;;;;5010532;28;20262;-74
2023/07/31 01:49:10;;;;;;;4.80;1.90;;;;;;;;;;5027500;28;20632;-73
2023/07/31 01:51:36;;;;;;;2.90;1.90;;;;;;;;;;5011110;28;20290;-73
2023/07/31 01:54:03;;;;;;;4.77;1.90;;;;;;;;;;4993797;28;20220;-73
2023/07/31 01:56:29;;;;;;;3.00;1.80;;;;;;;;;;5010179;28;20248;-73
2023/07/31 01:58:55;;;;;;;5.30;1.90;;;;;;;;;;5009849;28;20261;-74
2023/07/31 02:01:21;;;;;;;4.87;2.20;;;;;;;;;;5010616;28;20209;-74
2023/07/31 02:03:48;;;;;;;3.77;2.30;;;;;;;;;;4994646;28;20273;-74
2023/07/31 02:06:14;;;;;;;4.83;2.10;;;;;;;;;;5008323;28;20222;-74
2023/07/31 02:08:40;;;;;;;7.40;2.30;;;;;;;;;;5009949;28;20189;-74
2023/07/31 02:11:07;;;;;;;4.40;2.03;;;;;;;;;;5010182;28;20285;-74
2023/07/31 02:13:33;;;;;;;5.43;2.13;;;;;;;;;;5010205;28;20686;-73
2023/07/31 02:15:59;;;;;;;2.87;1.83;;;;;;;;;;4993565;28;20197;-73
2023/07/31 02:18:25;;;;;;;4.73;2.20;;;;;;;;;;5001603;28;20187;-73
2023/07/31 02:20:52;;;;;;;5.00;2.27;;;;;;;;;;5010232;28;20186;-73
2023/07/31 02:23:18;;;;;;;4.83;2.10;;;;;;;;;;5009871;28;20305;-73
2023/07/31 02:25:44;;;;;;;3.30;1.73;;;;;;;;;;5008469;28;20694;-73
2023/07/31 02:28:11;;;;;;;3.90;2.13;;;;;;;;;;5025595;28;20701;-74
2023/07/31 02:30:37;;;;;;;3.63;2.23;;;;;;;;;;5005119;28;20271;-73
2023/07/31 02:33:04;;;;;;;5.67;2.10;;;;;;;;;;5009594;28;20229;-73
2023/07/31 02:35:30;;;;;;;4.23;1.83;;;;;;;;;;5009772;28;20886;-73
2023/07/31 02:37:56;;;;;;;4.00;1.90;;;;;;;;;;5008871;28;20190;-73
2023/07/31 02:40:23;;;;;;;5.10;2.37;;;;;;;;;;5008313;28;20553;-73
2023/07/31 02:42:49;;;;;;;3.70;1.87;;;;;;;;;;5027677;28;20678;-73
2023/07/31 02:45:15;;;;;;;4.43;2.10;;;;;;;;;;4994380;28;20253;-74
2023/07/31 02:47:41;;;;;;;4.17;2.00;;;;;;;;;;5009357;28;20183;-73
2023/07/31 02:50:08;;;;;;;4.33;2.00;;;;;;;;;;5027163;28;20190;-74
2023/07/31 02:52:34;;;;;;;3.90;1.90;;;;;;;;;;4991987;28;20213;-74
2023/07/31 02:55:00;;;;;;;4.43;1.70;;;;;;;;;;5008083;28;20194;-74
2023/07/31 02:57:26;;;;;;;4.60;1.80;;;;;;;;;;5020357;28;20182;-74
2023/07/31 02:59:52;;;;;;;3.83;1.90;;;;;;;;;;4993190;28;20277;-73
2023/07/31 03:02:19;;;;;;;7.20;2.43;;;;;;;;;;4993450;28;20571;-74
2023/07/31 03:04:45;;;;;;;4.90;2.00;;;;;;;;;;5009711;28;20213;-73
2023/07/31 03:07:11;;;;;;;4.80;2.20;;;;;;;;;;5026936;28;20186;-72
2023/07/31 03:09:37;;;;;;;4.73;2.23;;;;;;;;;;4991053;28;20190;-73
2023/07/31 03:12:04;;;;;;;5.50;2.10;;;;;;;;;;5009202;28;20241;-73
2023/07/31 03:14:30;;;;;;;5.20;2.17;;;;;;;;;;5009781;28;20711;-73
2023/07/31 03:16:56;;;;;;;3.33;1.93;;;;;;;;;;5009136;28;20263;-74
2023/07/31 03:19:22;;;;;;;4.20;2.10;;;;;;;;;;4991846;28;20272;-73
2023/07/31 03:21:48;;;;;;;6.07;2.10;;;;;;;;;;5011733;28;20679;-74
2023/07/31 03:24:15;;;;;;;3.57;2.00;;;;;;;;;;5009733;28;20300;-74
2023/07/31 03:26:41;;;;;;;4.50;2.17;;;;;;;;;;5009489;28;20194;-73
2023/07/31 03:29:08;;;;;;;3.47;2.20;;;;;;;;;;5026397;28;20469;-74
2023/07/31 03:31:34;;;;;;;3.63;2.17;;;;;;;;;;5007672;28;20197;-74
2023/07/31 03:34:00;;;;;;;3.83;2.10;;;;;;;;;;5009013;28;20651;-73
2023/07/31 03:36:27;;;;;;;2.93;2.00;;;;;;;;;;5020252;28;20205;-74
2023/07/31 03:38:53;;;;;;;4.73;2.20;;;;;;;;;;4993560;28;20201;-73
2023/07/31 03:41:19;;;;;;;4.30;2.30;;;;;;;;;;5030734;28;20174;-74
2023/07/31 03:43:47;;;;;;;5.47;2.00;;;;;;;;;;4997354;28;20237;-74
2023/07/31 03:46:13;;;;;;;6.70;2.33;;;;;;;;;;5030100;28;20240;-73
2023/07/31 03:48:39;;;;;;;5.80;2.30;;;;;;;;;;5030923;28;20185;-73
2023/07/31 03:51:05;;;;;;;6.37;2.23;;;;;;;;;;5030971;28;20265;-74
2023/07/31 03:53:31;;;;;;;5.20;2.50;;;;;;;;;;5011616;28;20761;-73
2023/07/31 03:55:57;;;;;;;4.93;2.70;;;;;;;;;;5030418;28;20185;-73
2023/07/31 03:58:24;;;;;;;4.40;2.30;;;;;;;;;;4996238;28;20202;-74
2023/07/31 04:00:50;;;;;;;4.27;2.33;;;;;;;;;;5012617;28;20174;-74
2023/07/31 04:03:16;;;;;;;4.30;2.30;;;;;;;;;;5013132;28;20280;-73
2023/07/31 04:05:42;;;;;;;3.67;2.13;;;;;;;;;;5012423;28;20213;-74
2023/07/31 04:08:08;;;;;;;3.87;2.20;;;;;;;;;;5011630;28;20205;-73
2023/07/31 04:10:35;;;;;;;6.77;2.10;;;;;;;;;;5012605;28;20265;-73
2023/07/31 04:13:01;;;;;;;3.07;1.93;;;;;;;;;;5011122;28;20214;-73
2023/07/31 04:15:27;;;;;;;4.50;2.07;;;;;;;;;;5011266;28;20179;-73
2023/07/31 04:17:53;;;;;;;4.30;2.23;;;;;;;;;;5009875;28;20493;-74
2023/07/31 04:20:19;;;;;;;5.70;2.53;;;;;;;;;;5012947;28;20332;-74
2023/07/31 04:22:45;;;;;;;2.83;2.10;;;;;;;;;;5010958;28;20221;-74
2023/07/31 04:25:11;;;;;;;4.93;2.47;;;;;;;;;;4996024;28;20436;-73
2023/07/31 04:27:38;;;;;;;4.60;2.20;;;;;;;;;;4995468;28;20183;-73
2023/07/31 04:30:04;;;;;;;4.63;2.30;;;;;;;;;;5012008;28;20191;-74
2023/07/31 04:32:30;;;;;;;3.77;2.10;;;;;;;;;;5012644;28;20217;-74
2023/07/31 04:34:56;;;;;;;3.67;2.13;;;;;;;;;;5030065;28;20210;-73
2023/07/31 04:37:22;;;;;;;4.47;2.20;;;;;;;;;;5029837;28;20474;-74
2023/07/31 04:39:48;;;;;;;3.53;2.10;;;;;;;;;;4995388;28;20194;-74
2023/07/31 04:42:15;;;;;;;6.37;2.20;;;;;;;;;;5029892;28;20202;-74
2023/07/31 04:44:41;;;;;;;4.37;2.37;;;;;;;;;;5030595;28;20186;-73
2023/07/31 04:47:07;;;;;;;5.17;2.37;;;;;;;;;;5012627;28;20302;-73
2023/07/31 04:49:33;;;;;;;4.40;2.53;;;;;;;;;;5028787;28;20201;-74
2023/07/31 04:51:59;;;;;;;2.97;2.20;;;;;;;;;;5030909;28;20213;-73
2023/07/31 04:54:25;;;;;;;4.47;2.20;;;;;;;;;;5029762;28;20647;-72
2023/07/31 04:56:52;;;;;;;4.63;2.50;;;;;;;;;;5011258;28;20269;-72
2023/07/31 04:59:18;;;;;;;7.90;2.30;;;;;;;;;;5010961;28;20221;-73
2023/07/31 05:01:45;;;;;;;5.87;2.40;;;;;;;;;;5013374;28;20210;-72
2023/07/31 05:04:14;;;;;;;5.33;2.30;;;;;;;;;;5029204;28;20305;-72
2023/07/31 05:06:40;;;;;;;4.80;2.47;;;;;;;;;;5054235;22;20300;-76
2023/07/31 05:09:06;;;;;;;2.87;2.13;;;;;;;;;;5051228;28;20182;-76
2023/07/31 05:11:33;;;;;;;4.03;2.10;;;;;;;;;;5014368;28;20277;-76
2023/07/31 05:13:59;;;;;;;4.23;2.27;;;;;;;;;;5049427;28;20193;-76
2023/07/31 05:16:25;;;;;;;7.57;2.63;;;;;;;;;;5035371;28;20194;-76
2023/07/31 05:18:51;;;;;;;5.63;2.23;;;;;;;;;;5031006;28;20190;-76
2023/07/31 05:21:17;;;;;;;3.53;2.20;;;;;;;;;;5014100;28;20544;-76
2023/07/31 05:23:43;;;;;;;5.87;2.80;;;;;;;;;;5031575;28;20189;-77
2023/07/31 05:26:10;;;;;;;6.40;2.50;;;;;;;;;;5031118;28;20206;-76
2023/07/31 05:28:36;;;;;;;4.20;2.40;;;;;;;;;;5031362;28;20265;-76
2023/07/31 05:31:06;;;;;;;4.67;2.40;;;;;;;;;;5031709;28;20273;-76
2023/07/31 05:33:32;;;;;;;6.73;2.10;;;;;;;;;;5014627;28;20300;-77
2023/07/31 05:35:59;;;;;;;7.83;2.50;;;;;;;;;;5030948;28;20198;-77
2023/07/31 05:38:25;;;;;;;5.90;2.57;;;;;;;;;;5015184;28;20682;-77
2023/07/31 05:40:51;;;;;;;5.13;2.10;;;;;;;;;;4997122;28;20283;-77
2023/07/31 05:43:17;;;;;;;5.40;2.43;;;;;;;;;;5031316;28;20553;-77
2023/07/31 05:45:43;;;;;;;4.50;2.50;;;;;;;;;;5031090;28;20669;-77
2023/07/31 05:48:09;;;;;;;5.10;2.00;;;;;;;;;;5030284;28;20228;-77
2023/07/31 05:50:38;;;;;;;5.70;2.73;;;;;;;;;;5031247;28;20258;-76
2023/07/31 05:53:05;;;;;;;6.43;2.50;;;;;;;;;;5030580;28;20220;-77
2023/07/31 05:55:31;;;;;;;6.37;2.50;;;;;;;;;;5031012;28;20236;-77
2023/07/31 05:57:57;;;;;;;4.77;2.40;;;;;;;;;;5030143;28;20189;-76
2023/07/31 06:00:23;;;;;;;5.17;2.40;;;;;;;;;;5030643;28;20229;-76
2023/07/31 06:02:49;;;;;;;7.00;2.53;;;;;;;;;;5030947;28;20198;-76
2023/07/31 06:05:15;;;;;;;4.87;2.93;;;;;;;;;;5030455;28;20240;-77
2023/07/31 06:07:41;;;;;;;5.33;2.40;;;;;;;;;;5013027;28;20232;-77
2023/07/31 06:10:08;;;;;;;4.50;2.30;;;;;;;;;;5030520;28;20187;-77
2023/07/31 06:12:34;;;;;;;5.23;2.50;;;;;;;;;;5031017;28;20185;-77
2023/07/31 06:15:00;;;;;;;4.77;2.50;;;;;;;;;;5030721;28;20214;-77
2023/07/31 06:17:27;;;;;;;4.67;2.70;;;;;;;;;;5030223;28;20267;-77
2023/07/31 06:19:53;;;;;;;4.63;2.50;;;;;;;;;;5030419;28;20189;-77
2023/07/31 06:22:19;;;;;;;4.83;2.53;;;;;;;;;;5031190;28;20186;-76
2023/07/31 06:24:47;;;;;;;5.97;2.67;;;;;;;;;;5030556;28;20186;-77
2023/07/31 06:27:13;;;;;;;5.97;2.50;;;;;;;;;;5029986;28;20443;-76
2023/07/31 06:29:39;;;;;;;4.97;2.57;;;;;;;;;;5030003;28;20971;-77
2023/07/31 06:32:05;;;;;;;4.47;2.47;;;;;;;;;;5030322;28;20182;-76
2023/07/31 06:34:31;;;;;;;5.03;2.47;;;;;;;;;;5030317;28;20202;-76
2023/07/31 06:36:57;;;;;;;5.97;2.60;;;;;;;;;;5029737;28;20197;-77
2023/07/31 06:39:23;;;;;;;5.43;2.67;;;;;;;;;;5013512;28;20171;-78
2023/07/31 06:41:50;;;;;;;5.73;2.73;;;;;;;;;;5032902;28;20249;-77
2023/07/31 06:44:16;;;;;;;4.43;2.67;;;;;;;;;;5042795;28;20191;-78
2023/07/31 06:46:43;;;;;;;5.80;2.57;;;;;;;;;;5035789;28;20210;-78
2023/07/31 06:49:09;;;;;;;5.27;2.20;;;;;;;;;;5032788;28;20191;-77
2023/07/31 06:51:36;;;;;;;3.80;2.53;;;;;;;;;;5033870;28;20186;-77
2023/07/31 06:54:02;;;;;;;4.23;2.20;;;;;;;;;;5034404;28;20214;-77
2023/07/31 06:56:28;;;;;;;5.27;2.67;;;;;;;;;;5025925;28;20254;-78
2023/07/31 06:58:54;;;;;;;4.57;2.20;;;;;;;;;;5031271;28;20203;-78
2023/07/31 07:01:20;;;;;;;5.33;2.47;;;;;;;;;;5035815;28;20183;-78
2023/07/31 07:03:46;;;;;;;6.47;2.60;;;;;;;;;;5032642;28;20268;-78
2023/07/31 07:06:13;;;;;;;4.80;2.60;;;;;;;;;;5030849;28;20642;-78
2023/07/31 07:08:39;;;;;;;6.57;3.00;;;;;;;;;;5014030;28;20187;-78
2023/07/31 07:11:05;;;;;;;6.43;2.57;;;;;;;;;;5031241;28;20193;-78
2023/07/31 07:13:31;;;;;;;6.80;2.97;;;;;;;;;;5032489;28;20198;-78
2023/07/31 07:15:57;;;;;;;5.43;2.30;;;;;;;;;;5015448;28;20677;-78
2023/07/31 07:18:24;;;;;;;4.17;2.60;;;;;;;;;;5031572;28;20182;-78
2023/07/31 07:20:51;;;;;;;5.40;2.50;;;;;;;;;;5032789;28;20658;-77
2023/07/31 07:23:17;;;;;;;5.20;2.30;;;;;;;;;;5031056;28;20664;-78
2023/07/31 07:25:44;;;;;;;4.77;2.57;;;;;;;;;;5030735;28;20532;-77
2023/07/31 07:28:10;;;;;;;5.80;2.60;;;;;;;;;;4995162;28;20185;-77
2023/07/31 07:30:37;;;;;;;4.30;2.57;;;;;;;;;;5012114;28;20194;-78
2023/07/31 07:33:03;;;;;;;6.17;2.60;;;;;;;;;;5029683;28;20530;-78
2023/07/31 07:35:29;;;;;;;4.67;2.40;;;;;;;;;;5029927;28;20276;-78
2023/07/31 07:37:56;;;;;;;5.37;2.40;;;;;;;;;;5011651;28;20236;-77
2023/07/31 07:40:22;;;;;;;5.97;2.30;;;;;;;;;;5012512;28;20236;-75
2023/07/31 07:42:48;;;;;;;5.77;2.70;;;;;;;;;;5012499;28;20186;-76
2023/07/31 07:45:14;;;;;;;7.73;2.83;;;;;;;;;;5029999;28;20204;-75
2023/07/31 07:47:42;;;;;;;6.30;2.80;;;;;;;;;;5018141;28;20224;-77
2023/07/31 07:50:08;;;;;;;4.73;2.40;;;;;;;;;;5036626;28;20213;-78
2023/07/31 07:52:34;;;;;;;5.20;2.30;;;;;;;;;;5031917;28;20674;-78
2023/07/31 07:55:00;;;;;;;3.43;2.40;;;;;;;;;;5030966;28;20249;-77
2023/07/31 07:57:27;;;;;;;4.97;2.17;;;;;;;;;;5030730;28;20443;-77
2023/07/31 07:59:53;;;;;;;5.33;2.60;;;;;;;;;;5030929;28;20677;-78
2023/07/31 08:02:19;;;;;;;5.80;2.40;;;;;;;;;;5030548;28;20182;-78
2023/07/31 08:04:46;;;;;;;4.67;2.63;;;;;;;;;;5012794;28;20661;-78
2023/07/31 08:07:12;;;;;;;4.70;2.50;;;;;;;;;;5029651;28;20191;-78
2023/07/31 08:09:39;;;;;;;4.30;2.30;;;;;;;;;;5029649;28;20592;-77
2023/07/31 08:12:05;;;;;;;4.63;2.50;;;;;;;;;;5029132;28;20401;-77
2023/07/31 08:14:31;;;;;;;4.97;2.77;;;;;;;;;;5029464;28;20210;-77
2023/07/31 08:16:58;;;;;;;5.37;2.53;;;;;;;;;;5028881;28;20187;-78
2023/07/31 08:19:24;;;;;;;5.57;2.63;;;;;;;;;;5029827;28;20193;-77
2023/07/31 08:21:50;;;;;;;5.33;2.57;;;;;;;;;;5013600;28;20246;-77
2023/07/31 08:24:16;;;;;;;5.33;2.60;;;;;;;;;;5011182;28;20175;-78
2023/07/31 08:26:43;;;;;;;6.77;2.40;;;;;;;;;;5032639;28;20225;-78
2023/07/31 08:29:09;;;;;;;6.00;2.80;;;;;;;;;;5014580;28;20201;-78
2023/07/31 08:31:35;;;;;;;4.93;2.37;;;;;;;;;;5015604;28;20707;-77
2023/07/31 08:34:01;;;;;;;7.10;2.50;;;;;;;;;;5033026;28;20743;-78
2023/07/31 08:36:28;;;;;;;5.33;2.50;;;;;;;;;;5032571;28;20218;-78
2023/07/31 08:38:54;;;;;;;5.03;2.60;;;;;;;;;;5032491;28;20286;-77
2023/07/31 08:41:20;;;;;;;5.47;2.70;;;;;;;;;;5032663;28;20171;-78
2023/07/31 08:43:47;;;;;;;5.93;2.77;;;;;;;;;;5034201;28;20691;-77
2023/07/31 08:46:14;;;;;;;7.93;3.10;;;;;;;;;;5035217;28;20689;-78
2023/07/31 08:48:42;;;;;;;3.83;2.50;;;;;;;;;;5032302;28;20186;-78
2023/07/31 08:51:08;;;;;;;7.40;2.70;;;;;;;;;;5033073;28;20262;-78
2023/07/31 08:53:34;;;;;;;4.83;2.50;;;;;;;;;;5033103;28;20564;-78
2023/07/31 08:56:00;;;;;;;3.80;2.30;;;;;;;;;;5015834;28;20621;-78
2023/07/31 08:58:28;;;;;;;5.17;2.43;;;;;;;;;;5034032;28;20190;-78
2023/07/31 09:00:55;;;;;;;4.80;2.70;;;;;;;;;;5014783;28;20182;-78
2023/07/31 09:03:23;;;;;;;6.27;2.70;;;;;;;;;;5033117;28;20201;-76
2023/07/31 09:05:50;;;;;;;5.73;2.67;;;;;;;;;;5018299;28;20253;-76
2023/07/31 09:08:18;;;;;;;5.23;2.53;;;;;;;;;;5031829;28;20221;-78
2023/07/31 09:10:51;;;;;;;4.67;2.73;;;;;;;;;;5032821;28;20232;-78
2023/07/31 09:13:17;;;;;;;4.80;2.60;;;;;;;;;;5036471;28;20210;-77
2023/07/31 09:15:44;;;;;;;5.70;2.50;;;;;;;;;;5017362;28;20259;-78
2023/07/31 09:18:11;;;;;;;3.67;2.77;;;;;;;;;;5015874;28;20273;-78
2023/07/31 09:20:37;;;;;;;6.70;2.70;;;;;;;;;;5035379;28;20174;-78
2023/07/31 09:23:08;;;;;;;4.43;2.67;;;;;;;;;;5034050;28;20202;-77
2023/07/31 09:25:34;;;;;;;6.93;2.47;;;;;;;;;;5027913;28;20209;-78
2023/07/31 09:28:04;;;;;;;4.87;2.77;;;;;;;;;;5015657;28;20651;-76
2023/07/31 09:30:30;;;;;;;5.47;2.83;;;;;;;;;;5027222;28;20182;-78
2023/07/31 09:33:07;;;;;;;6.87;3.20;;;;;;;;;;5015736;28;20198;-77
2023/07/31 09:35:34;;;;;;;5.27;2.70;;;;;;;;;;5008989;28;20206;-78
2023/07/31 09:38:03;;;;;;;3.67;2.30;;;;;;;;;;5033465;28;20260;-78
2023/07/31 09:40:30;;;;;;;10.67;3.00;;;;;;;;;;5009016;28;20549;-78
2023/07/31 09:42:58;;;;;;;6.60;2.73;;;;;;;;;;5014445;28;20211;-77
2023/07/31 09:45:24;;;;;;;7.40;3.10;;;;;;;;;;5031728;28;20206;-77
2023/07/31 09:47:51;;;;;;;6.47;2.77;;;;;;;;;;5013585;28;20547;-78
2023/07/31 09:50:17;;;;;;;4.40;2.77;;;;;;;;;;5031149;28;20205;-78
2023/07/31 09:52:43;;;;;;;4.20;2.77;;;;;;;;;;4998004;28;20191;-78
2023/07/31 09:55:10;;;;;;;5.63;2.80;;;;;;;;;;5030971;28;20211;-77
2023/07/31 09:57:44;;;;;;;4.30;2.70;;;;;;;;;;5031436;28;20647;-78
2023/07/31 10:00:11;;;;;;;6.10;2.90;;;;;;;;;;5030732;28;20325;-78
2023/07/31 10:02:41;;;;;;;4.77;2.80;;;;;;;;;;5031725;28;20226;-77
2023/07/31 10:05:08;;;;;;;4.77;2.60;;;;;;;;;;5013423;28;20224;-78
2023/07/31 10:07:39;;;;;;;5.23;2.80;;;;;;;;;;5031793;28;20194;-78
2023/07/31 10:10:06;;;;;;;7.00;2.80;;;;;;;;;;5032223;28;20206;-77
2023/07/31 10:12:33;;;;;;;9.53;3.03;;;;;;;;;;5013554;28;20191;-78
2023/07/31 10:15:00;;;;;;;5.77;3.00;;;;;;;;;;4996800;28;20249;-78
2023/07/31 10:17:26;;;;;;;6.83;3.20;;;;;;;;;;5031897;28;20178;-78
2023/07/31 10:19:53;;;;;;;7.50;3.50;;;;;;;;;;5032649;28;20182;-78
2023/07/31 10:22:20;;;;;;;5.87;3.00;;;;;;;;;;5032405;28;20709;-78
2023/07/31 10:24:47;;;;;;;4.90;2.77;;;;;;;;;;5031632;28;20248;-78
2023/07/31 10:27:13;;;;;;;4.33;2.67;;;;;;;;;;5030630;28;20666;-77
2023/07/31 10:29:40;;;;;;;6.73;3.00;;;;;;;;;;5030479;28;20194;-77
2023/07/31 10:32:10;;;;;;;5.80;3.00;;;;;;;;;;5015387;28;20194;-78
2023/07/31 10:34:36;;;;;;;5.43;3.13;;;;;;;;;;5030939;28;20204;-78
2023/07/31 10:37:24;;;;;;;10.17;3.07;;;;;;;;;;5030510;28;20180;-78
2023/07/31 10:39:58;;;;;;;5.90;3.10;;;;;;;;;;5026651;28;20228;-78
2023/07/31 10:42:29;;;;;;;6.93;2.90;;;;;;;;;;5030125;28;20260;-78
2023/07/31 10:45:06;;;;;;;4.33;2.70;;;;;;;;;;5030485;28;20234;-78
2023/07/31 10:47:37;;;;;;;6.27;3.13;;;;;;;;;;5023631;28;20672;-77
2023/07/31 10:50:20;;;;;;;6.37;3.00;;;;;;;;;;5030115;28;20182;-78
2023/07/31 10:52:50;;;;;;;4.97;3.10;;;;;;;;;;5026374;28;20658;-78
2023/07/31 10:55:30;;;;;;;7.13;2.97;;;;;;;;;;5031606;28;20695;-78
2023/07/31 10:57:57;;;;;;;5.23;3.00;;;;;;;;;;5034064;28;20589;-78
2023/07/31 11:00:28;;;;;;;5.40;3.00;;;;;;;;;;5014492;28;20205;-75
2023/07/31 11:03:10;;;;;;;5.03;3.20;;;;;;;;;;5035603;28;20182;-75
2023/07/31 11:05:55;;;;;;;7.10;3.47;;;;;;;;;;5044322;22;20296;-72
2023/07/31 11:08:28;;;;;;;5.27;3.20;;;;;;;;;;5022694;28;20174;-73
2023/07/31 11:11:04;;;;;;;5.10;3.00;;;;;;;;;;5021867;28;20197;-74
2023/07/31 11:13:32;;;;;;;5.20;2.90;;;;;;;;;;5005824;28;20239;-72
2023/07/31 11:15:59;;;;;;;6.10;2.93;;;;;;;;;;5021241;28;20297;-72
2023/07/31 11:18:26;;;;;;;4.63;2.90;;;;;;;;;;5029295;28;20339;-72
2023/07/31 11:20:53;;;;;;;5.77;3.00;;;;;;;;;;5023179;28;20267;-72
2023/07/31 11:23:20;;;;;;;6.40;3.10;;;;;;;;;;5029439;28;20188;-73
2023/07/31 11:25:46;;;;;;;6.00;3.10;;;;;;;;;;5029729;28;20210;-73
2023/07/31 11:28:13;;;;;;;6.13;3.00;;;;;;;;;;5029190;28;20191;-73
2023/07/31 11:30:41;;;;;;;5.07;2.80;;;;;;;;;;5028828;28;20194;-75
2023/07/31 11:33:07;;;;;;;7.47;3.17;;;;;;;;;;5028955;28;20208;-76
2023/07/31 11:35:34;;;;;;;8.27;3.10;;;;;;;;;;5028779;28;20204;-74
2023/07/31 11:38:01;;;;;;;6.27;3.10;;;;;;;;;;5028777;28;20187;-75
2023/07/31 11:40:30;;;;;;;5.20;3.00;;;;;;;;;;5027279;28;20616;-75
2023/07/31 11:42:57;;;;;;;3.87;2.60;;;;;;;;;;5027619;28;20194;-75
2023/07/31 11:45:26;;;;;;;3.87;2.90;;;;;;;;;;5028790;28;20211;-75
2023/07/31 11:47:52;;;;;;;5.80;3.40;;;;;;;;;;5028730;28;20259;-74
2023/07/31 11:50:18;;;;;;;4.97;3.10;;;;;;;;;;5028411;28;20183;-74
2023/07/31 11:52:46;;;;;;;5.77;3.00;;;;;;;;;;5028941;28;20229;-75
2023/07/31 11:55:12;;;;;;;5.33;2.87;;;;;;;;;;5027043;28;20215;-74
2023/07/31 11:57:40;;;;;;;5.67;2.90;;;;;;;;;;5027763;28;20213;-75
2023/07/31 12:00:07;;;;;;;7.70;3.00;;;;;;;;;;5031001;28;20189;-75
2023/07/31 12:02:34;;;;;;;5.33;2.97;;;;;;;;;;5032004;28;20174;-75
2023/07/31 12:05:00;;;;;;;6.73;3.40;;;;;;;;;;5032713;28;20264;-73
2023/07/31 12:07:26;;;;;;;7.63;3.10;;;;;;;;;;5032456;28;20281;-73
2023/07/31 12:09:53;;;;;;;4.53;2.83;;;;;;;;;;5032803;28;20193;-73
2023/07/31 12:12:21;;;;;;;5.40;2.80;;;;;;;;;;5013121;28;20611;-75
2023/07/31 12:14:47;;;;;;;7.37;3.13;;;;;;;;;;5032982;28;20218;-75
2023/07/31 12:17:15;;;;;;;4.87;2.97;;;;;;;;;;5030948;28;20321;-75
2023/07/31 12:19:41;;;;;;;5.10;3.00;;;;;;;;;;5032147;28;20180;-75
2023/07/31 12:22:16;;;;;;;4.80;2.80;;;;;;;;;;5032098;28;20690;-75
2023/07/31 12:24:44;;;;;;;5.53;2.57;;;;;;;;;;5032284;28;20182;-75
2023/07/31 12:27:15;;;;;;;7.97;3.20;;;;;;;;;;5031924;28;20214;-75
2023/07/31 12:29:45;;;;;;;7.07;2.70;;;;;;;;;;5032256;28;20269;-75
2023/07/31 12:32:21;;;;;;;5.57;2.90;;;;;;;;;;5032007;28;20186;-74
2023/07/31 12:34:47;;;;;;;7.30;3.10;;;;;;;;;;5032370;28;20325;-74
2023/07/31 12:37:13;;;;;;;6.07;3.13;;;;;;;;;;5013888;28;20677;-75
2023/07/31 12:39:40;;;;;;;4.23;2.93;;;;;;;;;;5030782;28;20216;-74
2023/07/31 12:42:06;;;;;;;4.00;2.60;;;;;;;;;;4998637;28;20190;-75
2023/07/31 12:44:32;;;;;;;6.47;3.03;;;;;;;;;;5025848;28;20178;-75
2023/07/31 12:46:58;;;;;;;4.63;3.03;;;;;;;;;;5031414;28;20283;-75
2023/07/31 12:49:24;;;;;;;5.73;3.13;;;;;;;;;;5030261;28;20245;-75
2023/07/31 12:51:50;;;;;;;4.70;2.87;;;;;;;;;;5031874;28;20197;-75
2023/07/31 12:54:17;;;;;;;6.77;2.93;;;;;;;;;;5031425;28;20206;-75
2023/07/31 12:56:43;;;;;;;7.83;3.33;;;;;;;;;;5031501;28;20196;-75
2023/07/31 12:59:09;;;;;;;6.63;3.00;;;;;;;;;;5031096;28;20186;-74
2023/07/31 13:01:35;;;;;;;5.93;3.13;;;;;;;;;;5030454;28;20187;-75
2023/07/31 13:04:01;;;;;;;6.20;2.87;;;;;;;;;;5013924;28;20187;-75
2023/07/31 13:06:28;;;;;;;5.33;2.90;;;;;;;;;;5030964;28;20223;-75
2023/07/31 13:08:54;;;;;;;6.67;2.83;;;;;;;;;;5031611;28;20213;-75
2023/07/31 13:11:20;;;;;;;4.47;2.90;;;;;;;;;;5030453;28;20312;-75
2023/07/31 13:13:46;;;;;;;6.63;2.90;;;;;;;;;;5030424;28;20657;-75
2023/07/31 13:16:12;;;;;;;6.37;3.00;;;;;;;;;;5030894;28;20213;-75
2023/07/31 13:18:38;;;;;;;5.80;2.97;;;;;;;;;;5031013;28;20272;-75
2023/07/31 13:21:04;;;;;;;3.53;2.83;;;;;;;;;;5031145;28;20186;-75
2023/07/31 13:23:30;;;;;;;5.17;3.10;;;;;;;;;;5031013;28;20201;-75
2023/07/31 13:25:56;;;;;;;5.17;2.90;;;;;;;;;;5031193;28;20226;-75
2023/07/31 13:28:22;;;;;;;5.53;3.00;;;;;;;;;;5030046;28;20567;-75
2023/07/31 13:30:49;;;;;;;4.67;2.90;;;;;;;;;;5030781;28;20190;-75
2023/07/31 13:33:15;;;;;;;6.97;2.97;;;;;;;;;;5031014;28;20218;-75
2023/07/31 13:35:41;;;;;;;6.63;3.00;;;;;;;;;;5030884;28;20278;-75
2023/07/31 13:38:07;;;;;;;6.20;2.80;;;;;;;;;;5029204;28;20186;-75
2023/07/31 13:40:33;;;;;;;3.67;2.70;;;;;;;;;;5030698;28;20176;-75
2023/07/31 13:42:59;;;;;;;4.73;2.50;;;;;;;;;;5030658;28;20656;-75
2023/07/31 13:45:25;;;;;;;4.00;2.80;;;;;;;;;;5029744;28;20199;-75
2023/07/31 13:47:51;;;;;;;4.37;2.60;;;;;;;;;;5029574;28;20188;-74
2023/07/31 13:50:20;;;;;;;4.70;3.10;;;;;;;;;;5030133;28;20179;-74
2023/07/31 13:52:47;;;;;;;4.20;2.77;;;;;;;;;;5030523;28;20183;-75
2023/07/31 13:55:13;;;;;;;7.43;2.80;;;;;;;;;;5030089;28;20215;-75
2023/07/31 13:57:39;;;;;;;3.73;2.23;;;;;;;;;;5030380;28;20542;-75
2023/07/31 14:00:05;;;;;;;6.43;2.83;;;;;;;;;;5030059;28;20183;-75
2023/07/31 14:02:31;;;;;;;6.90;2.70;;;;;;;;;;5022581;28;20216;-75
2023/07/31 14:04:57;;;;;;;6.97;2.80;;;;;;;;;;5030249;28;20215;-75
2023/07/31 14:07:23;;;;;;;5.50;2.87;;;;;;;;;;5029886;28;20679;-75
2023/07/31 14:09:50;;;;;;;5.07;2.80;;;;;;;;;;5030048;28;20190;-75
2023/07/31 14:12:16;;;;;;;3.97;2.87;;;;;;;;;;5029836;28;20859;-75
2023/07/31 14:14:42;;;;;;;4.83;2.70;;;;;;;;;;5030688;28;20210;-75
2023/07/31 14:17:08;;;;;;;5.30;3.03;;;;;;;;;;5029648;28;20284;-75
2023/07/31 14:19:34;;;;;;;4.20;2.60;;;;;;;;;;5030138;28;20548;-76
2023/07/31 14:22:00;;;;;;;5.60;2.90;;;;;;;;;;5029314;28;20241;-76
2023/07/31 14:24:27;;;;;;;4.00;2.73;;;;;;;;;;5028422;28;20190;-75
2023/07/31 14:26:53;;;;;;;5.27;2.97;;;;;;;;;;5028511;28;20210;-74
2023/07/31 14:29:19;;;;;;;3.23;2.47;;;;;;;;;;5027956;28;20202;-74
2023/07/31 14:31:45;;;;;;;5.73;2.80;;;;;;;;;;5030401;28;20179;-75
2023/07/31 14:34:11;;;;;;;3.30;2.60;;;;;;;;;;5029628;28;20784;-75
2023/07/31 14:36:37;;;;;;;6.03;2.70;;;;;;;;;;5029323;28;20199;-76
2023/07/31 14:39:04;;;;;;;4.20;2.80;;;;;;;;;;5029201;28;20724;-75
2023/07/31 14:41:30;;;;;;;5.13;3.07;;;;;;;;;;5029483;28;20232;-76